sensor_id;sensor_type;location;lat;lon;timestamp;temperature;humidity
21090;DHT22;10703;51.020;6.128;2022-08-21T00:00:21;14.30;99.90
21090;DHT22;10703;51.020;6.128;2022-08-21T00:03:00;14.40;99.90
21090;DHT22;10703;51.020;6.128;2022-08-21T00:05:28;14.40;99.90
21090;DHT22;10703;51.020;6.128;2022-08-21T00:07:55;14.40;99.90
21090;DHT22;10703;51.020;6.128;2022-08-21T00:10:23;14.40;99.90
21090;DHT22;10703;51.020;6.128;2022-08-21T00:12:50;14.30;99.90
21090;DHT22;10703;51.020;6.128;2022-08-21T00:15:21;14.20;99.90
21090;DHT22;10703;51.020;6.128;2022-08-21T00:17:49;14.30;99.90
21090;DHT22;10703;51.020;6.128;2022-08-21T00:20:16;14.40;99.90
21090;DHT22;10703;51.020;6.128;2022-08-21T00:22:44;14.30;99.90
21090;DHT22;10703;51.020;6.128;2022-08-21T00:25:11;14.30;99.90
21090;DHT22;10703;51.020;6.128;2022-08-21T00:27:38;14.30;99.90
21090;DHT22;10703;51.020;6.128;2022-08-21T00:30:06;14.30;99.90
21090;DHT22;10703;51.020;6.128;2022-08-21T00:32:33;14.40;99.90
21090;DHT22;10703;51.020;6.128;2022-08-21T00:35:03;14.40;99.90
21090;DHT22;10703;51.020;6.128;2022-08-21T00:37:30;14.40;99.90
21090;DHT22;10703;51.020;6.128;2022-08-21T00:40:00;14.40;99.90
21090;DHT22;10703;51.020;6.128;2022-08-21T00:42:29;14.50;99.90
21090;DHT22;10703;51.020;6.128;2022-08-21T00:44:57;14.50;99.90
21090;DHT22;10703;51.020;6.128;2022-08-21T00:47:24;14.50;99.90
21090;DHT22;10703;51.020;6.128;2022-08-21T00:49:51;14.50;99.90
21090;DHT22;10703;51.020;6.128;2022-08-21T00:52:22;14.50;99.90
21090;DHT22;10703;51.020;6.128;2022-08-21T00:54:49;14.40;99.90
21090;DHT22;10703;51.020;6.128;2022-08-21T00:57:24;14.40;99.90
21090;DHT22;10703;51.020;6.128;2022-08-21T00:59:55;14.40;99.90
21090;DHT22;10703;51.020;6.128;2022-08-21T01:02:22;14.30;99.90
21090;DHT22;10703;51.020;6.128;2022-08-21T01:04:49;14.40;99.90
21090;DHT22;10703;51.020;6.128;2022-08-21T01:07:16;14.20;99.90
21090;DHT22;10703;51.020;6.128;2022-08-21T01:09:46;14.00;99.90
21090;DHT22;10703;51.020;6.128;2022-08-21T01:12:14;14.00;99.90
21090;DHT22;10703;51.020;6.128;2022-08-21T01:14:41;13.80;99.90
21090;DHT22;10703;51.020;6.128;2022-08-21T01:17:13;13.80;99.90
21090;DHT22;10703;51.020;6.128;2022-08-21T01:19:40;13.60;99.90
21090;DHT22;10703;51.020;6.128;2022-08-21T01:22:07;13.60;99.90
21090;DHT22;10703;51.020;6.128;2022-08-21T01:24:34;13.60;99.90
21090;DHT22;10703;51.020;6.128;2022-08-21T01:27:01;13.60;99.90
21090;DHT22;10703;51.020;6.128;2022-08-21T01:29:39;13.60;99.90
21090;DHT22;10703;51.020;6.128;2022-08-21T01:32:15;13.50;99.90
21090;DHT22;10703;51.020;6.128;2022-08-21T01:34:44;13.50;99.90
21090;DHT22;10703;51.020;6.128;2022-08-21T01:37:12;13.60;99.90
21090;DHT22;10703;51.020;6.128;2022-08-21T01:39:43;13.60;99.90
21090;DHT22;10703;51.020;6.128;2022-08-21T01:42:11;13.60;99.90
21090;DHT22;10703;51.020;6.128;2022-08-21T01:44:39;13.60;99.90
21090;DHT22;10703;51.020;6.128;2022-08-21T01:47:08;13.40;99.90
21090;DHT22;10703;51.020;6.128;2022-08-21T01:49:36;13.30;99.90
21090;DHT22;10703;51.020;6.128;2022-08-21T01:52:03;13.20;99.90
21090;DHT22;10703;51.020;6.128;2022-08-21T01:54:34;13.20;99.90
21090;DHT22;10703;51.020;6.128;2022-08-21T01:57:01;13.20;99.90
21090;DHT22;10703;51.020;6.128;2022-08-21T01:59:29;13.30;99.90
21090;DHT22;10703;51.020;6.128;2022-08-21T02:01:55;13.30;99.90
21090;DHT22;10703;51.020;6.128;2022-08-21T02:04:23;13.50;99.90
21090;DHT22;10703;51.020;6.128;2022-08-21T02:06:50;13.40;99.90
21090;DHT22;10703;51.020;6.128;2022-08-21T02:09:17;13.30;99.90
21090;DHT22;10703;51.020;6.128;2022-08-21T02:11:44;13.30;99.90
21090;DHT22;10703;51.020;6.128;2022-08-21T02:14:12;13.30;99.90
21090;DHT22;10703;51.020;6.128;2022-08-21T02:16:42;13.50;99.90
21090;DHT22;10703;51.020;6.128;2022-08-21T02:19:13;13.50;99.90
21090;DHT22;10703;51.020;6.128;2022-08-21T02:21:41;13.60;99.90
21090;DHT22;10703;51.020;6.128;2022-08-21T02:24:09;13.60;99.90
21090;DHT22;10703;51.020;6.128;2022-08-21T02:26:35;13.70;99.90
21090;DHT22;10703;51.020;6.128;2022-08-21T02:29:03;13.70;99.90
21090;DHT22;10703;51.020;6.128;2022-08-21T02:31:31;13.80;99.90
21090;DHT22;10703;51.020;6.128;2022-08-21T02:33:57;13.80;99.90
21090;DHT22;10703;51.020;6.128;2022-08-21T02:36:24;13.90;99.90
21090;DHT22;10703;51.020;6.128;2022-08-21T02:38:51;13.90;99.90
21090;DHT22;10703;51.020;6.128;2022-08-21T02:41:20;13.90;99.90
21090;DHT22;10703;51.020;6.128;2022-08-21T02:43:47;13.90;99.90
21090;DHT22;10703;51.020;6.128;2022-08-21T02:46:16;14.00;99.90
21090;DHT22;10703;51.020;6.128;2022-08-21T02:48:43;13.90;99.90
21090;DHT22;10703;51.020;6.128;2022-08-21T02:51:13;13.80;99.90
21090;DHT22;10703;51.020;6.128;2022-08-21T02:53:41;13.90;99.90
21090;DHT22;10703;51.020;6.128;2022-08-21T02:56:10;13.90;99.90
21090;DHT22;10703;51.020;6.128;2022-08-21T02:58:46;14.00;99.90
21090;DHT22;10703;51.020;6.128;2022-08-21T03:01:13;14.10;99.90
21090;DHT22;10703;51.020;6.128;2022-08-21T03:03:42;14.10;99.90
21090;DHT22;10703;51.020;6.128;2022-08-21T03:06:12;14.10;99.90
21090;DHT22;10703;51.020;6.128;2022-08-21T03:08:39;14.10;99.90
21090;DHT22;10703;51.020;6.128;2022-08-21T03:11:06;14.00;99.90
21090;DHT22;10703;51.020;6.128;2022-08-21T03:13:35;14.00;99.90
21090;DHT22;10703;51.020;6.128;2022-08-21T03:16:02;13.90;99.90
21090;DHT22;10703;51.020;6.128;2022-08-21T03:18:30;13.90;99.90
21090;DHT22;10703;51.020;6.128;2022-08-21T03:20:57;13.90;99.90
21090;DHT22;10703;51.020;6.128;2022-08-21T03:23:24;13.90;99.90
21090;DHT22;10703;51.020;6.128;2022-08-21T03:25:58;13.90;99.90
21090;DHT22;10703;51.020;6.128;2022-08-21T03:28:25;13.80;99.90
21090;DHT22;10703;51.020;6.128;2022-08-21T03:30:52;13.90;99.90
21090;DHT22;10703;51.020;6.128;2022-08-21T03:33:19;13.80;99.90
21090;DHT22;10703;51.020;6.128;2022-08-21T03:35:56;13.70;99.90
21090;DHT22;10703;51.020;6.128;2022-08-21T03:38:24;13.70;99.90
21090;DHT22;10703;51.020;6.128;2022-08-21T03:40:52;13.60;99.90
21090;DHT22;10703;51.020;6.128;2022-08-21T03:43:19;13.60;99.90
21090;DHT22;10703;51.020;6.128;2022-08-21T03:45:46;13.50;99.90
21090;DHT22;10703;51.020;6.128;2022-08-21T03:48:12;13.60;99.90
21090;DHT22;10703;51.020;6.128;2022-08-21T03:50:41;13.70;99.90
21090;DHT22;10703;51.020;6.128;2022-08-21T03:53:10;13.70;99.90
21090;DHT22;10703;51.020;6.128;2022-08-21T03:55:48;13.70;99.90
21090;DHT22;10703;51.020;6.128;2022-08-21T03:58:17;13.60;99.90
21090;DHT22;10703;51.020;6.128;2022-08-21T04:00:46;13.60;99.90
21090;DHT22;10703;51.020;6.128;2022-08-21T04:03:13;13.50;99.90
21090;DHT22;10703;51.020;6.128;2022-08-21T04:05:40;13.50;99.90
21090;DHT22;10703;51.020;6.128;2022-08-21T04:08:07;13.50;99.90
21090;DHT22;10703;51.020;6.128;2022-08-21T04:10:36;13.40;99.90
21090;DHT22;10703;51.020;6.128;2022-08-21T04:13:04;13.40;99.90
21090;DHT22;10703;51.020;6.128;2022-08-21T04:15:31;13.40;99.90
21090;DHT22;10703;51.020;6.128;2022-08-21T04:17:58;13.40;99.90
21090;DHT22;10703;51.020;6.128;2022-08-21T04:20:26;13.40;99.90
21090;DHT22;10703;51.020;6.128;2022-08-21T04:22:53;13.40;99.90
21090;DHT22;10703;51.020;6.128;2022-08-21T04:25:22;13.30;99.90
21090;DHT22;10703;51.020;6.128;2022-08-21T04:27:49;13.30;99.90
21090;DHT22;10703;51.020;6.128;2022-08-21T04:30:16;13.30;99.90
21090;DHT22;10703;51.020;6.128;2022-08-21T04:32:45;13.30;99.90
21090;DHT22;10703;51.020;6.128;2022-08-21T04:35:17;13.20;99.90
21090;DHT22;10703;51.020;6.128;2022-08-21T04:37:44;13.30;99.90
21090;DHT22;10703;51.020;6.128;2022-08-21T04:40:13;13.50;99.90
21090;DHT22;10703;51.020;6.128;2022-08-21T04:42:46;13.60;99.90
21090;DHT22;10703;51.020;6.128;2022-08-21T04:45:27;13.70;99.90
21090;DHT22;10703;51.020;6.128;2022-08-21T04:47:56;13.80;99.90
21090;DHT22;10703;51.020;6.128;2022-08-21T04:50:38;13.80;99.90
21090;DHT22;10703;51.020;6.128;2022-08-21T04:53:13;13.90;99.90
21090;DHT22;10703;51.020;6.128;2022-08-21T04:55:41;13.90;99.90
21090;DHT22;10703;51.020;6.128;2022-08-21T04:58:10;14.10;99.90
21090;DHT22;10703;51.020;6.128;2022-08-21T05:00:38;14.10;99.90
21090;DHT22;10703;51.020;6.128;2022-08-21T05:03:05;14.10;99.90
21090;DHT22;10703;51.020;6.128;2022-08-21T05:05:33;14.10;99.90
21090;DHT22;10703;51.020;6.128;2022-08-21T05:08:02;14.10;99.90
21090;DHT22;10703;51.020;6.128;2022-08-21T05:10:29;14.10;99.90
21090;DHT22;10703;51.020;6.128;2022-08-21T05:12:58;14.20;99.90
21090;DHT22;10703;51.020;6.128;2022-08-21T05:15:25;14.20;99.90
21090;DHT22;10703;51.020;6.128;2022-08-21T05:17:52;14.30;99.90
21090;DHT22;10703;51.020;6.128;2022-08-21T05:20:27;14.40;99.90
21090;DHT22;10703;51.020;6.128;2022-08-21T05:22:54;14.50;99.90
21090;DHT22;10703;51.020;6.128;2022-08-21T05:25:21;14.60;99.90
21090;DHT22;10703;51.020;6.128;2022-08-21T05:27:50;14.60;99.90
21090;DHT22;10703;51.020;6.128;2022-08-21T05:30:18;14.70;99.90
21090;DHT22;10703;51.020;6.128;2022-08-21T05:32:46;14.70;99.90
21090;DHT22;10703;51.020;6.128;2022-08-21T05:35:14;14.70;99.90
21090;DHT22;10703;51.020;6.128;2022-08-21T05:37:41;14.70;99.90
21090;DHT22;10703;51.020;6.128;2022-08-21T05:40:08;14.80;99.90
21090;DHT22;10703;51.020;6.128;2022-08-21T05:42:50;14.80;99.90
21090;DHT22;10703;51.020;6.128;2022-08-21T05:45:21;14.90;99.90
21090;DHT22;10703;51.020;6.128;2022-08-21T05:48:11;15.00;99.90
21090;DHT22;10703;51.020;6.128;2022-08-21T05:50:38;15.00;99.90
21090;DHT22;10703;51.020;6.128;2022-08-21T05:53:05;15.10;99.90
21090;DHT22;10703;51.020;6.128;2022-08-21T05:55:33;15.20;99.90
21090;DHT22;10703;51.020;6.128;2022-08-21T05:58:02;15.30;99.90
21090;DHT22;10703;51.020;6.128;2022-08-21T06:00:29;15.40;99.90
21090;DHT22;10703;51.020;6.128;2022-08-21T06:02:55;15.60;99.90
21090;DHT22;10703;51.020;6.128;2022-08-21T06:05:23;15.70;99.90
21090;DHT22;10703;51.020;6.128;2022-08-21T06:08:03;15.80;99.90
21090;DHT22;10703;51.020;6.128;2022-08-21T06:10:30;15.90;99.90
21090;DHT22;10703;51.020;6.128;2022-08-21T06:12:57;15.90;99.90
21090;DHT22;10703;51.020;6.128;2022-08-21T06:15:24;15.90;99.90
21090;DHT22;10703;51.020;6.128;2022-08-21T06:17:53;16.00;99.90
21090;DHT22;10703;51.020;6.128;2022-08-21T06:20:19;16.10;99.90
21090;DHT22;10703;51.020;6.128;2022-08-21T06:22:46;16.20;99.90
21090;DHT22;10703;51.020;6.128;2022-08-21T06:25:13;16.30;99.90
21090;DHT22;10703;51.020;6.128;2022-08-21T06:27:40;16.40;99.90
21090;DHT22;10703;51.020;6.128;2022-08-21T06:30:07;16.60;99.90
21090;DHT22;10703;51.020;6.128;2022-08-21T06:32:34;16.50;99.90
21090;DHT22;10703;51.020;6.128;2022-08-21T06:35:02;16.60;99.90
21090;DHT22;10703;51.020;6.128;2022-08-21T06:37:29;16.70;99.90
21090;DHT22;10703;51.020;6.128;2022-08-21T06:39:55;16.80;99.90
21090;DHT22;10703;51.020;6.128;2022-08-21T06:42:24;16.80;99.90
21090;DHT22;10703;51.020;6.128;2022-08-21T06:44:53;16.90;99.90
21090;DHT22;10703;51.020;6.128;2022-08-21T06:47:20;17.00;99.90
21090;DHT22;10703;51.020;6.128;2022-08-21T06:49:47;17.00;99.90
21090;DHT22;10703;51.020;6.128;2022-08-21T06:52:15;17.30;99.90
21090;DHT22;10703;51.020;6.128;2022-08-21T06:54:42;17.30;99.90
21090;DHT22;10703;51.020;6.128;2022-08-21T06:57:09;17.40;99.90
21090;DHT22;10703;51.020;6.128;2022-08-21T06:59:35;17.50;99.90
21090;DHT22;10703;51.020;6.128;2022-08-21T07:02:03;17.50;99.90
21090;DHT22;10703;51.020;6.128;2022-08-21T07:04:29;17.70;99.90
21090;DHT22;10703;51.020;6.128;2022-08-21T07:06:56;18.00;99.90
21090;DHT22;10703;51.020;6.128;2022-08-21T07:09:23;18.50;99.90
21090;DHT22;10703;51.020;6.128;2022-08-21T07:11:53;19.10;99.90
21090;DHT22;10703;51.020;6.128;2022-08-21T07:14:21;19.50;99.90
21090;DHT22;10703;51.020;6.128;2022-08-21T07:16:49;19.60;99.90
21090;DHT22;10703;51.020;6.128;2022-08-21T07:19:17;19.90;99.90
21090;DHT22;10703;51.020;6.128;2022-08-21T07:21:44;20.10;99.90
21090;DHT22;10703;51.020;6.128;2022-08-21T07:24:12;20.30;99.90
21090;DHT22;10703;51.020;6.128;2022-08-21T07:26:38;20.30;99.90
21090;DHT22;10703;51.020;6.128;2022-08-21T07:29:05;20.50;99.90
21090;DHT22;10703;51.020;6.128;2022-08-21T07:31:32;20.80;99.90
21090;DHT22;10703;51.020;6.128;2022-08-21T07:33:59;20.60;99.90
21090;DHT22;10703;51.020;6.128;2022-08-21T07:36:25;21.20;99.90
21090;DHT22;10703;51.020;6.128;2022-08-21T07:38:52;20.60;99.90
21090;DHT22;10703;51.020;6.128;2022-08-21T07:41:22;20.70;99.90
21090;DHT22;10703;51.020;6.128;2022-08-21T07:43:49;21.20;99.90
21090;DHT22;10703;51.020;6.128;2022-08-21T07:46:18;21.70;99.90
21090;DHT22;10703;51.020;6.128;2022-08-21T07:48:46;21.30;99.90
21090;DHT22;10703;51.020;6.128;2022-08-21T07:51:14;21.40;99.90
21090;DHT22;10703;51.020;6.128;2022-08-21T07:53:41;21.80;99.90
21090;DHT22;10703;51.020;6.128;2022-08-21T07:56:09;21.40;99.90
21090;DHT22;10703;51.020;6.128;2022-08-21T07:58:37;20.90;99.90
21090;DHT22;10703;51.020;6.128;2022-08-21T08:01:05;21.30;99.90
21090;DHT22;10703;51.020;6.128;2022-08-21T08:03:33;21.50;99.90
21090;DHT22;10703;51.020;6.128;2022-08-21T08:06:00;21.60;99.90
21090;DHT22;10703;51.020;6.128;2022-08-21T08:08:27;21.40;99.90
21090;DHT22;10703;51.020;6.128;2022-08-21T08:10:56;21.80;99.90
21090;DHT22;10703;51.020;6.128;2022-08-21T08:13:24;22.30;99.90
21090;DHT22;10703;51.020;6.128;2022-08-21T08:15:51;22.60;99.90
21090;DHT22;10703;51.020;6.128;2022-08-21T08:18:18;22.40;99.90
21090;DHT22;10703;51.020;6.128;2022-08-21T08:20:45;22.60;99.90
21090;DHT22;10703;51.020;6.128;2022-08-21T08:23:13;22.20;99.90
21090;DHT22;10703;51.020;6.128;2022-08-21T08:25:40;22.20;99.90
21090;DHT22;10703;51.020;6.128;2022-08-21T08:28:07;22.40;99.90
21090;DHT22;10703;51.020;6.128;2022-08-21T08:30:44;22.90;99.90
21090;DHT22;10703;51.020;6.128;2022-08-21T08:33:11;23.30;99.90
21090;DHT22;10703;51.020;6.128;2022-08-21T08:35:37;24.00;99.90
21090;DHT22;10703;51.020;6.128;2022-08-21T08:38:06;23.70;99.90
21090;DHT22;10703;51.020;6.128;2022-08-21T08:40:44;23.50;99.90
21090;DHT22;10703;51.020;6.128;2022-08-21T08:43:12;23.40;99.90
21090;DHT22;10703;51.020;6.128;2022-08-21T08:45:44;23.30;99.90
21090;DHT22;10703;51.020;6.128;2022-08-21T08:48:14;23.50;99.90
21090;DHT22;10703;51.020;6.128;2022-08-21T08:50:52;23.50;99.90
21090;DHT22;10703;51.020;6.128;2022-08-21T08:53:42;23.80;99.90
21090;DHT22;10703;51.020;6.128;2022-08-21T08:56:11;24.30;99.90
21090;DHT22;10703;51.020;6.128;2022-08-21T08:58:40;24.90;99.90
21090;DHT22;10703;51.020;6.128;2022-08-21T09:01:15;25.70;99.90
21090;DHT22;10703;51.020;6.128;2022-08-21T09:03:42;25.70;99.90
21090;DHT22;10703;51.020;6.128;2022-08-21T09:06:36;25.30;99.90
21090;DHT22;10703;51.020;6.128;2022-08-21T09:09:27;24.60;99.90
21090;DHT22;10703;51.020;6.128;2022-08-21T09:12:09;24.40;99.90
21090;DHT22;10703;51.020;6.128;2022-08-21T09:14:50;23.80;99.90
21090;DHT22;10703;51.020;6.128;2022-08-21T09:22:52;24.50;99.90
21090;DHT22;10703;51.020;6.128;2022-08-21T09:25:32;24.80;99.90
21090;DHT22;10703;51.020;6.128;2022-08-21T09:27:59;24.50;99.90
21090;DHT22;10703;51.020;6.128;2022-08-21T09:30:30;24.30;99.90
21090;DHT22;10703;51.020;6.128;2022-08-21T09:32:57;24.90;99.90
21090;DHT22;10703;51.020;6.128;2022-08-21T09:35:25;25.40;99.90
21090;DHT22;10703;51.020;6.128;2022-08-21T09:37:53;25.00;99.90
21090;DHT22;10703;51.020;6.128;2022-08-21T09:43:06;25.90;99.90
21090;DHT22;10703;51.020;6.128;2022-08-21T09:45:40;25.30;99.90
21090;DHT22;10703;51.020;6.128;2022-08-21T09:48:29;25.10;99.90
21090;DHT22;10703;51.020;6.128;2022-08-21T09:51:15;25.40;99.90
21090;DHT22;10703;51.020;6.128;2022-08-21T09:53:47;25.20;99.90
21090;DHT22;10703;51.020;6.128;2022-08-21T09:56:21;25.10;99.90
21090;DHT22;10703;51.020;6.128;2022-08-21T09:59:16;25.80;99.90
21090;DHT22;10703;51.020;6.128;2022-08-21T10:01:46;25.90;99.90
21090;DHT22;10703;51.020;6.128;2022-08-21T10:04:14;25.60;99.90
21090;DHT22;10703;51.020;6.128;2022-08-21T10:06:41;25.30;99.90
21090;DHT22;10703;51.020;6.128;2022-08-21T10:09:21;25.50;99.90
21090;DHT22;10703;51.020;6.128;2022-08-21T10:20:40;25.80;99.90
21090;DHT22;10703;51.020;6.128;2022-08-21T10:34:24;26.50;99.90
21090;DHT22;10703;51.020;6.128;2022-08-21T10:37:34;27.00;99.90
21090;DHT22;10703;51.020;6.128;2022-08-21T10:40:20;26.40;99.90
21090;DHT22;10703;51.020;6.128;2022-08-21T10:51:18;27.20;99.90
21090;DHT22;10703;51.020;6.128;2022-08-21T10:57:00;26.80;99.90
21090;DHT22;10703;51.020;6.128;2022-08-21T10:59:38;27.10;99.90
21090;DHT22;10703;51.020;6.128;2022-08-21T11:02:20;27.10;99.90
21090;DHT22;10703;51.020;6.128;2022-08-21T11:04:56;27.40;99.90
21090;DHT22;10703;51.020;6.128;2022-08-21T11:07:30;27.70;99.90
21090;DHT22;10703;51.020;6.128;2022-08-21T11:10:10;28.00;99.90
21090;DHT22;10703;51.020;6.128;2022-08-21T11:12:42;27.60;99.90
21090;DHT22;10703;51.020;6.128;2022-08-21T11:15:26;27.40;99.90
21090;DHT22;10703;51.020;6.128;2022-08-21T11:18:21;28.80;99.90
21090;DHT22;10703;51.020;6.128;2022-08-21T11:23:43;29.00;98.90
21090;DHT22;10703;51.020;6.128;2022-08-21T11:26:28;28.90;98.60
21090;DHT22;10703;51.020;6.128;2022-08-21T11:29:08;29.10;99.40
21090;DHT22;10703;51.020;6.128;2022-08-21T11:52:43;28.60;97.80
21090;DHT22;10703;51.020;6.128;2022-08-21T12:03:16;29.50;97.20
21090;DHT22;10703;51.020;6.128;2022-08-21T12:05:52;29.20;96.90
21090;DHT22;10703;51.020;6.128;2022-08-21T12:08:35;28.90;97.80
21090;DHT22;10703;51.020;6.128;2022-08-21T12:16:37;30.20;96.80
21090;DHT22;10703;51.020;6.128;2022-08-21T12:19:14;31.10;96.50
21090;DHT22;10703;51.020;6.128;2022-08-21T12:27:13;31.30;95.40
21090;DHT22;10703;51.020;6.128;2022-08-21T12:29:50;29.50;96.30
21090;DHT22;10703;51.020;6.128;2022-08-21T12:35:15;30.40;95.90
21090;DHT22;10703;51.020;6.128;2022-08-21T12:38:32;29.90;96.70
21090;DHT22;10703;51.020;6.128;2022-08-21T12:41:11;30.50;96.20
21090;DHT22;10703;51.020;6.128;2022-08-21T12:43:47;31.50;94.40
21090;DHT22;10703;51.020;6.128;2022-08-21T12:46:22;31.30;94.50
21090;DHT22;10703;51.020;6.128;2022-08-21T12:48:56;29.70;95.80
21090;DHT22;10703;51.020;6.128;2022-08-21T12:51:46;30.10;95.70
21090;DHT22;10703;51.020;6.128;2022-08-21T12:54:26;31.00;95.80
21090;DHT22;10703;51.020;6.128;2022-08-21T12:57:05;31.90;94.70
21090;DHT22;10703;51.020;6.128;2022-08-21T12:59:36;33.00;93.80
21090;DHT22;10703;51.020;6.128;2022-08-21T13:02:09;33.50;93.20
21090;DHT22;10703;51.020;6.128;2022-08-21T13:04:41;32.20;93.70
21090;DHT22;10703;51.020;6.128;2022-08-21T13:07:10;31.30;94.30
21090;DHT22;10703;51.020;6.128;2022-08-21T13:09:48;31.20;94.30
21090;DHT22;10703;51.020;6.128;2022-08-21T13:12:16;31.30;95.30
21090;DHT22;10703;51.020;6.128;2022-08-21T13:14:45;31.10;94.50
21090;DHT22;10703;51.020;6.128;2022-08-21T13:17:16;31.50;95.40
21090;DHT22;10703;51.020;6.128;2022-08-21T13:20:22;31.10;94.40
21090;DHT22;10703;51.020;6.128;2022-08-21T13:22:50;32.30;94.50
21090;DHT22;10703;51.020;6.128;2022-08-21T13:25:20;32.20;93.80
21090;DHT22;10703;51.020;6.128;2022-08-21T13:28:06;32.80;92.30
21090;DHT22;10703;51.020;6.128;2022-08-21T13:30:33;31.80;92.40
21090;DHT22;10703;51.020;6.128;2022-08-21T13:33:02;30.00;93.80
21090;DHT22;10703;51.020;6.128;2022-08-21T13:35:52;30.30;94.60
21090;DHT22;10703;51.020;6.128;2022-08-21T13:38:30;28.60;94.70
21090;DHT22;10703;51.020;6.128;2022-08-21T13:41:01;30.00;93.80
21090;DHT22;10703;51.020;6.128;2022-08-21T13:43:32;30.70;93.20
21090;DHT22;10703;51.020;6.128;2022-08-21T13:46:00;31.50;92.50
21090;DHT22;10703;51.020;6.128;2022-08-21T13:48:30;31.70;92.60
21090;DHT22;10703;51.020;6.128;2022-08-21T13:50:57;30.00;93.30
21090;DHT22;10703;51.020;6.128;2022-08-21T13:53:35;29.20;93.50
21090;DHT22;10703;51.020;6.128;2022-08-21T13:56:03;29.40;93.40
21090;DHT22;10703;51.020;6.128;2022-08-21T13:58:41;30.10;93.90
21090;DHT22;10703;51.020;6.128;2022-08-21T14:01:30;31.40;92.90
21090;DHT22;10703;51.020;6.128;2022-08-21T14:04:05;31.10;92.80
21090;DHT22;10703;51.020;6.128;2022-08-21T14:06:36;31.30;92.20
21090;DHT22;10703;51.020;6.128;2022-08-21T14:09:32;31.80;92.10
21090;DHT22;10703;51.020;6.128;2022-08-21T14:12:04;32.20;92.20
21090;DHT22;10703;51.020;6.128;2022-08-21T14:14:50;32.00;91.40
21090;DHT22;10703;51.020;6.128;2022-08-21T14:17:29;32.20;91.60
21090;DHT22;10703;51.020;6.128;2022-08-21T14:19:59;33.00;91.30
21090;DHT22;10703;51.020;6.128;2022-08-21T14:22:48;33.40;91.60
21090;DHT22;10703;51.020;6.128;2022-08-21T14:25:28;32.60;90.20
21090;DHT22;10703;51.020;6.128;2022-08-21T14:28:07;31.10;91.50
21090;DHT22;10703;51.020;6.128;2022-08-21T14:30:42;32.00;91.90
21090;DHT22;10703;51.020;6.128;2022-08-21T14:33:12;32.30;90.90
21090;DHT22;10703;51.020;6.128;2022-08-21T14:35:40;32.30;91.30
21090;DHT22;10703;51.020;6.128;2022-08-21T14:38:18;32.90;90.60
21090;DHT22;10703;51.020;6.128;2022-08-21T14:40:49;32.60;90.70
21090;DHT22;10703;51.020;6.128;2022-08-21T14:43:17;31.80;91.10
21090;DHT22;10703;51.020;6.128;2022-08-21T14:45:45;31.70;91.20
21090;DHT22;10703;51.020;6.128;2022-08-21T14:48:12;32.30;91.40
21090;DHT22;10703;51.020;6.128;2022-08-21T14:50:39;32.00;91.40
21090;DHT22;10703;51.020;6.128;2022-08-21T14:53:07;31.80;91.10
21090;DHT22;10703;51.020;6.128;2022-08-21T14:55:37;32.60;91.50
21090;DHT22;10703;51.020;6.128;2022-08-21T14:58:24;32.60;91.10
21090;DHT22;10703;51.020;6.128;2022-08-21T15:00:52;31.70;91.40
21090;DHT22;10703;51.020;6.128;2022-08-21T15:03:20;31.60;91.60
21090;DHT22;10703;51.020;6.128;2022-08-21T15:05:48;31.50;91.70
21090;DHT22;10703;51.020;6.128;2022-08-21T15:08:16;31.70;92.00
21090;DHT22;10703;51.020;6.128;2022-08-21T15:10:43;31.30;91.80
21090;DHT22;10703;51.020;6.128;2022-08-21T15:13:30;31.30;92.30
21090;DHT22;10703;51.020;6.128;2022-08-21T15:15:57;30.90;92.20
21090;DHT22;10703;51.020;6.128;2022-08-21T15:18:29;30.50;92.40
21090;DHT22;10703;51.020;6.128;2022-08-21T15:20:56;29.80;92.90
21090;DHT22;10703;51.020;6.128;2022-08-21T15:23:22;29.60;93.60
21090;DHT22;10703;51.020;6.128;2022-08-21T15:25:50;29.60;93.40
21090;DHT22;10703;51.020;6.128;2022-08-21T15:28:17;29.10;93.50
21090;DHT22;10703;51.020;6.128;2022-08-21T15:30:44;28.90;94.10
21090;DHT22;10703;51.020;6.128;2022-08-21T15:33:11;28.00;94.50
21090;DHT22;10703;51.020;6.128;2022-08-21T15:35:38;27.80;94.30
21090;DHT22;10703;51.020;6.128;2022-08-21T15:38:06;27.70;95.20
21090;DHT22;10703;51.020;6.128;2022-08-21T15:40:37;27.60;94.90
21090;DHT22;10703;51.020;6.128;2022-08-21T15:43:05;27.80;95.20
21090;DHT22;10703;51.020;6.128;2022-08-21T15:45:32;27.80;95.00
21090;DHT22;10703;51.020;6.128;2022-08-21T15:47:59;27.80;95.30
21090;DHT22;10703;51.020;6.128;2022-08-21T15:50:29;27.30;95.30
21090;DHT22;10703;51.020;6.128;2022-08-21T15:52:56;27.00;95.80
21090;DHT22;10703;51.020;6.128;2022-08-21T15:55:23;26.70;95.80
21090;DHT22;10703;51.020;6.128;2022-08-21T15:57:51;26.60;95.50
21090;DHT22;10703;51.020;6.128;2022-08-21T16:00:24;26.40;95.60
21090;DHT22;10703;51.020;6.128;2022-08-21T16:02:55;26.60;96.50
21090;DHT22;10703;51.020;6.128;2022-08-21T16:05:22;26.60;96.40
21090;DHT22;10703;51.020;6.128;2022-08-21T16:07:50;26.70;96.70
21090;DHT22;10703;51.020;6.128;2022-08-21T16:10:19;26.50;95.90
21090;DHT22;10703;51.020;6.128;2022-08-21T16:12:50;27.00;96.20
21090;DHT22;10703;51.020;6.128;2022-08-21T16:15:17;27.40;95.80
21090;DHT22;10703;51.020;6.128;2022-08-21T16:17:47;28.10;95.70
21090;DHT22;10703;51.020;6.128;2022-08-21T16:20:22;28.50;95.70
21090;DHT22;10703;51.020;6.128;2022-08-21T16:22:51;28.40;94.40
21090;DHT22;10703;51.020;6.128;2022-08-21T16:25:19;28.20;95.00
21090;DHT22;10703;51.020;6.128;2022-08-21T16:27:50;27.70;94.90
21090;DHT22;10703;51.020;6.128;2022-08-21T16:30:24;27.10;95.60
21090;DHT22;10703;51.020;6.128;2022-08-21T16:32:51;27.00;95.70
21090;DHT22;10703;51.020;6.128;2022-08-21T16:35:20;27.30;95.90
21090;DHT22;10703;51.020;6.128;2022-08-21T16:37:47;27.80;96.20
21090;DHT22;10703;51.020;6.128;2022-08-21T16:40:19;27.70;95.90
21090;DHT22;10703;51.020;6.128;2022-08-21T16:42:47;27.50;95.90
21090;DHT22;10703;51.020;6.128;2022-08-21T16:45:16;27.40;96.40
21090;DHT22;10703;51.020;6.128;2022-08-21T16:47:44;26.90;96.50
21090;DHT22;10703;51.020;6.128;2022-08-21T16:50:16;26.40;96.60
21090;DHT22;10703;51.020;6.128;2022-08-21T16:52:42;26.10;97.10
21090;DHT22;10703;51.020;6.128;2022-08-21T16:55:09;25.90;97.50
21090;DHT22;10703;51.020;6.128;2022-08-21T16:57:36;25.60;97.30
21090;DHT22;10703;51.020;6.128;2022-08-21T17:00:05;25.40;97.70
21090;DHT22;10703;51.020;6.128;2022-08-21T17:02:43;25.10;97.40
21090;DHT22;10703;51.020;6.128;2022-08-21T17:05:11;24.90;98.00
21090;DHT22;10703;51.020;6.128;2022-08-21T17:07:40;24.80;98.30
21090;DHT22;10703;51.020;6.128;2022-08-21T17:10:09;24.70;98.70
21090;DHT22;10703;51.020;6.128;2022-08-21T17:12:35;24.60;98.80
21090;DHT22;10703;51.020;6.128;2022-08-21T17:15:13;24.70;98.90
21090;DHT22;10703;51.020;6.128;2022-08-21T17:17:47;24.60;99.00